Posh Pelican — 9V7602 — position and weather

sailwx.info

Track history (hours):
 
Tides and Currents Weather Stations Pressure Air Temp Water Temp Dewpoint Dewpoint Depression Visibility Wind Speed Wind Dir Waves Ship Positions

Posh Pelican

Last reported at 2018-Apr-18 18:39 UTC. Time now 2018-Apr-20 06:20 UTC.
Position S 04°54' E 011°37'.

Length 79 m; draft 5 m.

Type: Tug. MMSI: 563712000.

Date/timePositionNaut miles runAvg speedWind from/ knotsBaromVisibWave heightAir tempDewpointWater temp
2018-Apr-18 18:39S 04°54' E 011°37'1 6.1
2018-Apr-18 18:30S 04°55' E 011°36'4 5.4
2018-Apr-18 17:41S 04°57' E 011°32'1 5.3
2018-Apr-18 17:30S 04°58' E 011°32'3 5.6
2018-Apr-18 17:00S 05°01' E 011°30'3 6.0
2018-Apr-18 16:30S 05°03' E 011°30'3 6.2
2018-Apr-18 16:00S 05°07' E 011°29'3 5.7
2018-Apr-18 15:28S 05°09' E 011°28'3 5.4
2018-Apr-18 14:58S 05°12' E 011°27'2 5.4
2018-Apr-18 14:30S 05°14' E 011°25'3 5.2
2018-Apr-18 14:00S 05°16' E 011°24'1 2.6
2018-Apr-18 13:28S 05°17' E 011°23'0 0.0
2018-Apr-18 13:00S 05°17' E 011°23'0 0.0
2018-Apr-18 12:28S 05°17' E 011°23'0 0.0
2018-Apr-18 12:00S 05°17' E 011°23'0 0.0
2018-Apr-18 11:30S 05°17' E 011°23'0 0.0
2018-Apr-18 11:00S 05°17' E 011°23'0 0.0
2018-Apr-18 10:30S 05°17' E 011°23'0 0.0
2018-Apr-18 10:00S 05°17' E 011°23'0 0.0
2018-Apr-18 09:30S 05°17' E 011°23'0 0.0
2018-Apr-18 09:00S 05°17' E 011°23'0 0.0
2018-Apr-18 08:30S 05°17' E 011°23'0 0.0
2018-Apr-18 08:00S 05°17' E 011°23'0 0.0
2018-Apr-18 07:30S 05°17' E 011°23'0 0.0
2018-Apr-18 07:00S 05°17' E 011°23'0 0.0
2018-Apr-18 06:30S 05°17' E 011°23'0 0.0
2018-Apr-18 06:00S 05°17' E 011°23'0 0.0
2018-Apr-18 05:30S 05°17' E 011°23'0 0.0
2018-Apr-18 05:00S 05°17' E 011°23'0 0.0
2018-Apr-18 04:30S 05°17' E 011°23'0 0.0
2018-Apr-18 04:00S 05°17' E 011°23'0 0.4
2018-Apr-18 03:30S 05°17' E 011°23'0 0.1
2018-Apr-18 03:00S 05°18' E 011°23'1 2.5
2018-Apr-18 02:30S 05°17' E 011°22'0 0.1
2018-Apr-18 01:58S 05°17' E 011°22'0 0.1
2018-Apr-18 01:30S 05°17' E 011°22'0 0.0
2018-Apr-18 01:00S 05°17' E 011°22'0 0.1
2018-Apr-18 00:29S 05°17' E 011°22'0 0.1
2018-Apr-18 00:00S 05°17' E 011°22'1 1.9
2018-Apr-17 23:30S 05°18' E 011°23'0 0.4
2018-Apr-17 23:00S 05°18' E 011°23'0 0.0
2018-Apr-17 22:30S 05°18' E 011°23'0 0.0
2018-Apr-17 22:00S 05°18' E 011°23'0 0.0
2018-Apr-17 21:29S 05°18' E 011°23'0 0.1
2018-Apr-17 21:00S 05°18' E 011°23'0 0.1
2018-Apr-17 20:30S 05°18' E 011°23'0 0.0
2018-Apr-17 19:55S 05°18' E 011°23'0 0.1
2018-Apr-17 19:30S 05°18' E 011°23'0 0.1
2018-Apr-17 18:58S 05°18' E 011°23'0 0.0
2018-Apr-17 18:29S 05°18' E 011°23'0 0.9
2018-Apr-17 18:00S 05°18' E 011°23'1 1.5
2018-Apr-17 17:30S 05°17' E 011°23'0 0.0
2018-Apr-17 17:00S 05°17' E 011°23'0 0.0
2018-Apr-17 16:30S 05°17' E 011°23'0 0.2
2018-Apr-17 16:00S 05°17' E 011°23'0 0.5
2018-Apr-17 15:30S 05°17' E 011°24'1 1.6
2018-Apr-17 15:00S 05°17' E 011°23'0 0.3
2018-Apr-17 14:30S 05°17' E 011°23'0 0.0
2018-Apr-17 14:00S 05°17' E 011°23'0 0.0
2018-Apr-17 13:30S 05°17' E 011°23'0 0.0
2018-Apr-17 13:00S 05°17' E 011°23'0 0.0
2018-Apr-17 12:30S 05°17' E 011°23'0 0.4
2018-Apr-17 11:58S 05°17' E 011°23'0 0.2
2018-Apr-17 11:30S 05°17' E 011°23'2 3.9
2018-Apr-17 11:00S 05°16' E 011°21'2 4.3
2018-Apr-17 10:29S 05°14' E 011°20'2 4.1
2018-Apr-17 09:59S 05°13' E 011°18'1 1.1
2018-Apr-17 09:30S 05°13' E 011°18'0 0.0
2018-Apr-17 09:00S 05°13' E 011°18'0 0.0
2018-Apr-17 08:30S 05°13' E 011°18'0 0.0
2018-Apr-17 08:00S 05°13' E 011°18'0 0.1
2018-Apr-17 07:30S 05°13' E 011°18'0 0.3
2018-Apr-17 07:00S 05°13' E 011°18'0 0.3
2018-Apr-17 06:28S 05°13' E 011°18'0 0.0
2018-Apr-17 06:00S 05°13' E 011°18'0 0.0
2018-Apr-17 05:30S 05°13' E 011°18'0 0.0
2018-Apr-17 05:00S 05°13' E 011°18'0 0.1
2018-Apr-17 04:29S 05°13' E 011°18'0 0.0
2018-Apr-17 03:59S 05°13' E 011°18'0 0.0
2018-Apr-17 03:30S 05°13' E 011°18'0 0.8
2018-Apr-17 03:00S 05°13' E 011°18'1 1.7
2018-Apr-17 02:29S 05°12' E 011°18'1 1.7
2018-Apr-17 02:00S 05°11' E 011°19'9 6.2
2018-Apr-17 00:35S 05°04' E 011°24'1 6.1
2018-Apr-17 00:29S 05°04' E 011°25'3 6.3
2018-Apr-17 00:00S 05°02' E 011°26'9 0.3
2018-Apr-15 19:52S 04°55' E 011°33'2 4.8
2018-Apr-15 19:29S 04°57' E 011°33'2 4.9
2018-Apr-15 18:59S 04°59' E 011°32'2 4.9
2018-Apr-15 18:30S 05°01' E 011°31'2 4.8
2018-Apr-15 18:00S 05°04' E 011°30'2 5.0
2018-Apr-15 17:30S 05°06' E 011°30'3 5.1
2018-Apr-15 16:58S 05°09' E 011°30'2 5.1
2018-Apr-15 16:30S 05°11' E 011°29'3 5.0
2018-Apr-15 16:00S 05°13' E 011°29'2 4.8
2018-Apr-15 15:30S 05°16' E 011°28'2 4.7
2018-Apr-15 15:00S 05°18' E 011°27'2 4.7
2018-Apr-15 14:30S 05°20' E 011°26'2 4.7
2018-Apr-15 13:58S 05°22' E 011°25'0 0.8
2018-Apr-15 13:30S 05°22' E 011°25'0 0.0
2018-Apr-15 13:00S 05°22' E 011°25'0 0.0
2018-Apr-15 12:30S 05°22' E 011°25'0 0.2
2018-Apr-15 12:00S 05°22' E 011°25'0 0.5
2018-Apr-15 11:30S 05°23' E 011°25'1 2.1
2018-Apr-15 10:59S 05°22' E 011°25'2 3.5
2018-Apr-15 10:29S 05°20' E 011°25'2 4.4
2018-Apr-15 10:00S 05°18' E 011°24'1 1.9
2018-Apr-15 09:30S 05°17' E 011°23'0 0.1
2018-Apr-15 09:00S 05°17' E 011°23'0 0.4
2018-Apr-15 08:30S 05°17' E 011°23'0 0.0
2018-Apr-15 08:00S 05°17' E 011°23'0 0.0
2018-Apr-15 07:30S 05°17' E 011°23'0 0.0
2018-Apr-15 06:49S 05°17' E 011°23'0 0.0
2018-Apr-15 06:28S 05°17' E 011°23'0 0.0
2018-Apr-15 05:58S 05°17' E 011°23'0 0.0
2018-Apr-15 05:29S 05°17' E 011°23'0 0.0
2018-Apr-15 04:59S 05°17' E 011°23'0 0.0
2018-Apr-15 04:30S 05°17' E 011°23'0 0.0
2018-Apr-15 04:00S 05°17' E 011°23'0 0.0
2018-Apr-15 03:30S 05°17' E 011°23'0 0.0
2018-Apr-15 03:00S 05°17' E 011°23'0 0.3
2018-Apr-15 02:30S 05°17' E 011°23'0 0.4
2018-Apr-15 02:00S 05°18' E 011°23'2 4.0
2018-Apr-15 01:30S 05°16' E 011°24'4 7.1
2018-Apr-15 01:00S 05°13' E 011°26'4 7.1
2018-Apr-15 00:30S 05°10' E 011°28'4 6.9
2018-Apr-14 23:57S 05°06' E 011°30'3 7.0
2018-Apr-14 23:28S 05°03' E 011°30'  
2018-Apr-11 21:13S 05°02' E 011°31'1 5.9
2018-Apr-11 20:59S 05°03' E 011°31'3 5.8
2018-Apr-11 20:30S 05°06' E 011°31'3 5.4
2018-Apr-11 19:55S 05°09' E 011°30'2 5.7
2018-Apr-11 19:30S 05°10' E 011°28'3 5.7
2018-Apr-11 19:00S 05°13' E 011°26'3 5.8
2018-Apr-11 18:30S 05°15' E 011°25'3 5.1
2018-Apr-11 18:00S 05°17' E 011°23'0 0.1
2018-Apr-11 17:30S 05°17' E 011°23'0 0.0
2018-Apr-11 17:00S 05°17' E 011°23'0 0.0
2018-Apr-11 16:30S 05°17' E 011°23'0 0.0
2018-Apr-11 16:00S 05°17' E 011°23'0 0.0
2018-Apr-11 15:30S 05°17' E 011°23'0 0.0
2018-Apr-11 15:00S 05°17' E 011°23'0 0.0
2018-Apr-11 14:30S 05°17' E 011°23'0 0.0
2018-Apr-11 14:00S 05°17' E 011°23'0 0.2
2018-Apr-11 13:28S 05°17' E 011°23'0 0.9
2018-Apr-11 13:00S 05°17' E 011°23'0 0.5
2018-Apr-11 12:30S 05°17' E 011°23'0 0.2
2018-Apr-11 11:59S 05°17' E 011°23'0 0.4
2018-Apr-11 11:29S 05°17' E 011°23'0 0.0
2018-Apr-11 10:59S 05°17' E 011°23'0 0.0
2018-Apr-11 10:30S 05°17' E 011°23'0 0.0
2018-Apr-11 10:00S 05°17' E 011°23'0 0.0
2018-Apr-11 09:30S 05°17' E 011°23'0 0.0
2018-Apr-11 08:58S 05°17' E 011°23'0 0.0
2018-Apr-11 08:30S 05°17' E 011°23'0 0.2
2018-Apr-11 07:59S 05°17' E 011°23'0 0.3
2018-Apr-11 07:30S 05°17' E 011°23'1 1.6
2018-Apr-11 07:00S 05°17' E 011°24'0 0.7
2018-Apr-11 06:28S 05°17' E 011°24'0 0.1
2018-Apr-11 06:00S 05°17' E 011°24'0 0.0
2018-Apr-11 05:30S 05°17' E 011°24'1 2.0
2018-Apr-11 05:00S 05°17' E 011°23'0 0.0
2018-Apr-11 04:30S 05°17' E 011°23'0 0.0
2018-Apr-11 04:00S 05°17' E 011°23'0 0.2
2018-Apr-11 03:30S 05°17' E 011°23'0 0.4
2018-Apr-11 03:00S 05°17' E 011°23'0 0.8
2018-Apr-11 02:30S 05°17' E 011°23'1 1.3
2018-Apr-11 01:59S 05°17' E 011°22'1 1.2
2018-Apr-11 01:30S 05°16' E 011°23'1 1.6
2018-Apr-11 01:00S 05°17' E 011°23'0 0.7
2018-Apr-11 00:30S 05°17' E 011°23'0 0.3
2018-Apr-11 00:01S 05°17' E 011°23'0 0.4
2018-Apr-10 23:30S 05°17' E 011°24'0 0.4
2018-Apr-10 22:59S 05°17' E 011°24'3 6.9
2018-Apr-10 22:29S 05°14' E 011°25'4 7.8
2018-Apr-10 22:00S 05°10' E 011°27'5 7.8
2018-Apr-10 21:19S 05°06' E 011°30'  
Track history (hours):
 
Tides and Currents Weather Stations Pressure Air Temp Water Temp Dewpoint Dewpoint Depression Visibility Wind Speed Wind Dir Waves Ship Positions

Posh Pelican

Last reported at 2018-Apr-18 18:39 UTC. Time now 2018-Apr-20 06:20 UTC.
Position S 04°54' E 011°37'.

Length 79 m; draft 5 m.

Type: Tug. MMSI: 563712000.

Date/timePositionNaut miles runAvg speedWind from/ knotsBaromVisibWave heightAir tempDewpointWater temp
2018-Apr-18 18:39S 04°54' E 011°37'1 6.1
2018-Apr-18 18:30S 04°55' E 011°36'4 5.4
2018-Apr-18 17:41S 04°57' E 011°32'1 5.3
2018-Apr-18 17:30S 04°58' E 011°32'3 5.6
2018-Apr-18 17:00S 05°01' E 011°30'3 6.0
2018-Apr-18 16:30S 05°03' E 011°30'3 6.2
2018-Apr-18 16:00S 05°07' E 011°29'3 5.7
2018-Apr-18 15:28S 05°09' E 011°28'3 5.4
2018-Apr-18 14:58S 05°12' E 011°27'2 5.4
2018-Apr-18 14:30S 05°14' E 011°25'3 5.2
2018-Apr-18 14:00S 05°16' E 011°24'1 2.6
2018-Apr-18 13:28S 05°17' E 011°23'0 0.0
2018-Apr-18 13:00S 05°17' E 011°23'0 0.0
2018-Apr-18 12:28S 05°17' E 011°23'0 0.0
2018-Apr-18 12:00S 05°17' E 011°23'0 0.0
2018-Apr-18 11:30S 05°17' E 011°23'0 0.0
2018-Apr-18 11:00S 05°17' E 011°23'0 0.0
2018-Apr-18 10:30S 05°17' E 011°23'0 0.0
2018-Apr-18 10:00S 05°17' E 011°23'0 0.0
2018-Apr-18 09:30S 05°17' E 011°23'0 0.0
2018-Apr-18 09:00S 05°17' E 011°23'0 0.0
2018-Apr-18 08:30S 05°17' E 011°23'0 0.0
2018-Apr-18 08:00S 05°17' E 011°23'0 0.0
2018-Apr-18 07:30S 05°17' E 011°23'0 0.0
2018-Apr-18 07:00S 05°17' E 011°23'0 0.0
2018-Apr-18 06:30S 05°17' E 011°23'0 0.0
2018-Apr-18 06:00S 05°17' E 011°23'0 0.0
2018-Apr-18 05:30S 05°17' E 011°23'0 0.0
2018-Apr-18 05:00S 05°17' E 011°23'0 0.0
2018-Apr-18 04:30S 05°17' E 011°23'0 0.0
2018-Apr-18 04:00S 05°17' E 011°23'0 0.4
2018-Apr-18 03:30S 05°17' E 011°23'0 0.1
2018-Apr-18 03:00S 05°18' E 011°23'1 2.5
2018-Apr-18 02:30S 05°17' E 011°22'0 0.1
2018-Apr-18 01:58S 05°17' E 011°22'0 0.1
2018-Apr-18 01:30S 05°17' E 011°22'0 0.0
2018-Apr-18 01:00S 05°17' E 011°22'0 0.1
2018-Apr-18 00:29S 05°17' E 011°22'0 0.1
2018-Apr-18 00:00S 05°17' E 011°22'1 1.9
2018-Apr-17 23:30S 05°18' E 011°23'0 0.4
2018-Apr-17 23:00S 05°18' E 011°23'0 0.0
2018-Apr-17 22:30S 05°18' E 011°23'0 0.0
2018-Apr-17 22:00S 05°18' E 011°23'0 0.0
2018-Apr-17 21:29S 05°18' E 011°23'0 0.1
2018-Apr-17 21:00S 05°18' E 011°23'0 0.1
2018-Apr-17 20:30S 05°18' E 011°23'0 0.0
2018-Apr-17 19:55S 05°18' E 011°23'0 0.1
2018-Apr-17 19:30S 05°18' E 011°23'0 0.1
2018-Apr-17 18:58S 05°18' E 011°23'0 0.0
2018-Apr-17 18:29S 05°18' E 011°23'0 0.9
2018-Apr-17 18:00S 05°18' E 011°23'1 1.5
2018-Apr-17 17:30S 05°17' E 011°23'0 0.0
2018-Apr-17 17:00S 05°17' E 011°23'0 0.0
2018-Apr-17 16:30S 05°17' E 011°23'0 0.2
2018-Apr-17 16:00S 05°17' E 011°23'0 0.5
2018-Apr-17 15:30S 05°17' E 011°24'1 1.6
2018-Apr-17 15:00S 05°17' E 011°23'0 0.3
2018-Apr-17 14:30S 05°17' E 011°23'0 0.0
2018-Apr-17 14:00S 05°17' E 011°23'0 0.0
2018-Apr-17 13:30S 05°17' E 011°23'0 0.0
2018-Apr-17 13:00S 05°17' E 011°23'0 0.0
2018-Apr-17 12:30S 05°17' E 011°23'0 0.4
2018-Apr-17 11:58S 05°17' E 011°23'0 0.2
2018-Apr-17 11:30S 05°17' E 011°23'2 3.9
2018-Apr-17 11:00S 05°16' E 011°21'2 4.3
2018-Apr-17 10:29S 05°14' E 011°20'2 4.1
2018-Apr-17 09:59S 05°13' E 011°18'1 1.1
2018-Apr-17 09:30S 05°13' E 011°18'0 0.0
2018-Apr-17 09:00S 05°13' E 011°18'0 0.0
2018-Apr-17 08:30S 05°13' E 011°18'0 0.0
2018-Apr-17 08:00S 05°13' E 011°18'0 0.1
2018-Apr-17 07:30S 05°13' E 011°18'0 0.3
2018-Apr-17 07:00S 05°13' E 011°18'0 0.3
2018-Apr-17 06:28S 05°13' E 011°18'0 0.0
2018-Apr-17 06:00S 05°13' E 011°18'0 0.0
2018-Apr-17 05:30S 05°13' E 011°18'0 0.0
2018-Apr-17 05:00S 05°13' E 011°18'0 0.1
2018-Apr-17 04:29S 05°13' E 011°18'0 0.0
2018-Apr-17 03:59S 05°13' E 011°18'0 0.0
2018-Apr-17 03:30S 05°13' E 011°18'0 0.8
2018-Apr-17 03:00S 05°13' E 011°18'1 1.7
2018-Apr-17 02:29S 05°12' E 011°18'1 1.7
2018-Apr-17 02:00S 05°11' E 011°19'9 6.2
2018-Apr-17 00:35S 05°04' E 011°24'1 6.1
2018-Apr-17 00:29S 05°04' E 011°25'3 6.3
2018-Apr-17 00:00S 05°02' E 011°26'9 0.3
2018-Apr-15 19:52S 04°55' E 011°33'2 4.8
2018-Apr-15 19:29S 04°57' E 011°33'2 4.9
2018-Apr-15 18:59S 04°59' E 011°32'2 4.9
2018-Apr-15 18:30S 05°01' E 011°31'2 4.8
2018-Apr-15 18:00S 05°04' E 011°30'2 5.0
2018-Apr-15 17:30S 05°06' E 011°30'3 5.1
2018-Apr-15 16:58S 05°09' E 011°30'2 5.1
2018-Apr-15 16:30S 05°11' E 011°29'3 5.0
2018-Apr-15 16:00S 05°13' E 011°29'2 4.8
2018-Apr-15 15:30S 05°16' E 011°28'2 4.7
2018-Apr-15 15:00S 05°18' E 011°27'2 4.7
2018-Apr-15 14:30S 05°20' E 011°26'2 4.7
2018-Apr-15 13:58S 05°22' E 011°25'0 0.8
2018-Apr-15 13:30S 05°22' E 011°25'0 0.0
2018-Apr-15 13:00S 05°22' E 011°25'0 0.0
2018-Apr-15 12:30S 05°22' E 011°25'0 0.2
2018-Apr-15 12:00S 05°22' E 011°25'0 0.5
2018-Apr-15 11:30S 05°23' E 011°25'1 2.1
2018-Apr-15 10:59S 05°22' E 011°25'2 3.5
2018-Apr-15 10:29S 05°20' E 011°25'2 4.4
2018-Apr-15 10:00S 05°18' E 011°24'1 1.9
2018-Apr-15 09:30S 05°17' E 011°23'0 0.1
2018-Apr-15 09:00S 05°17' E 011°23'0 0.4
2018-Apr-15 08:30S 05°17' E 011°23'0 0.0
2018-Apr-15 08:00S 05°17' E 011°23'0 0.0
2018-Apr-15 07:30S 05°17' E 011°23'0 0.0
2018-Apr-15 06:49S 05°17' E 011°23'0 0.0
2018-Apr-15 06:28S 05°17' E 011°23'0 0.0
2018-Apr-15 05:58S 05°17' E 011°23'0 0.0
2018-Apr-15 05:29S 05°17' E 011°23'0 0.0
2018-Apr-15 04:59S 05°17' E 011°23'0 0.0
2018-Apr-15 04:30S 05°17' E 011°23'0 0.0
2018-Apr-15 04:00S 05°17' E 011°23'0 0.0
2018-Apr-15 03:30S 05°17' E 011°23'0 0.0
2018-Apr-15 03:00S 05°17' E 011°23'0 0.3
2018-Apr-15 02:30S 05°17' E 011°23'0 0.4
2018-Apr-15 02:00S 05°18' E 011°23'2 4.0
2018-Apr-15 01:30S 05°16' E 011°24'4 7.1
2018-Apr-15 01:00S 05°13' E 011°26'4 7.1
2018-Apr-15 00:30S 05°10' E 011°28'4 6.9
2018-Apr-14 23:57S 05°06' E 011°30'3 7.0
2018-Apr-14 23:28S 05°03' E 011°30'  
2018-Apr-11 21:13S 05°02' E 011°31'1 5.9
2018-Apr-11 20:59S 05°03' E 011°31'3 5.8
2018-Apr-11 20:30S 05°06' E 011°31'3 5.4
2018-Apr-11 19:55S 05°09' E 011°30'2 5.7
2018-Apr-11 19:30S 05°10' E 011°28'3 5.7
2018-Apr-11 19:00S 05°13' E 011°26'3 5.8
2018-Apr-11 18:30S 05°15' E 011°25'3 5.1
2018-Apr-11 18:00S 05°17' E 011°23'0 0.1
2018-Apr-11 17:30S 05°17' E 011°23'0 0.0
2018-Apr-11 17:00S 05°17' E 011°23'0 0.0
2018-Apr-11 16:30S 05°17' E 011°23'0 0.0
2018-Apr-11 16:00S 05°17' E 011°23'0 0.0
2018-Apr-11 15:30S 05°17' E 011°23'0 0.0
2018-Apr-11 15:00S 05°17' E 011°23'0 0.0
2018-Apr-11 14:30S 05°17' E 011°23'0 0.0
2018-Apr-11 14:00S 05°17' E 011°23'0 0.2
2018-Apr-11 13:28S 05°17' E 011°23'0 0.9
2018-Apr-11 13:00S 05°17' E 011°23'0 0.5
2018-Apr-11 12:30S 05°17' E 011°23'0 0.2
2018-Apr-11 11:59S 05°17' E 011°23'0 0.4
2018-Apr-11 11:29S 05°17' E 011°23'0 0.0
2018-Apr-11 10:59S 05°17' E 011°23'0 0.0
2018-Apr-11 10:30S 05°17' E 011°23'0 0.0
2018-Apr-11 10:00S 05°17' E 011°23'0 0.0
2018-Apr-11 09:30S 05°17' E 011°23'0 0.0
2018-Apr-11 08:58S 05°17' E 011°23'0 0.0
2018-Apr-11 08:30S 05°17' E 011°23'0 0.2
2018-Apr-11 07:59S 05°17' E 011°23'0 0.3
2018-Apr-11 07:30S 05°17' E 011°23'1 1.6
2018-Apr-11 07:00S 05°17' E 011°24'0 0.7
2018-Apr-11 06:28S 05°17' E 011°24'0 0.1
2018-Apr-11 06:00S 05°17' E 011°24'0 0.0
2018-Apr-11 05:30S 05°17' E 011°24'1 2.0
2018-Apr-11 05:00S 05°17' E 011°23'0 0.0
2018-Apr-11 04:30S 05°17' E 011°23'0 0.0
2018-Apr-11 04:00S 05°17' E 011°23'0 0.2
2018-Apr-11 03:30S 05°17' E 011°23'0 0.4
2018-Apr-11 03:00S 05°17' E 011°23'0 0.8
2018-Apr-11 02:30S 05°17' E 011°23'1 1.3
2018-Apr-11 01:59S 05°17' E 011°22'1 1.2
2018-Apr-11 01:30S 05°16' E 011°23'1 1.6
2018-Apr-11 01:00S 05°17' E 011°23'0 0.7
2018-Apr-11 00:30S 05°17' E 011°23'0 0.3
2018-Apr-11 00:01S 05°17' E 011°23'0 0.4
2018-Apr-10 23:30S 05°17' E 011°24'0 0.4
2018-Apr-10 22:59S 05°17' E 011°24'3 6.9
2018-Apr-10 22:29S 05°14' E 011°25'4 7.8
2018-Apr-10 22:00S 05°10' E 011°27'5 7.8
2018-Apr-10 21:19S 05°06' E 011°30'  

Dump ship's entire track history